sensor_id;sensor_type;location;lat;lon;timestamp;P1;durP1;ratioP1;P2;durP2;ratioP2
21507;SDS011;10915;54.352;9.074;2023-06-24T00:23:51;10.23;;;7.90;;
21507;SDS011;10915;54.352;9.074;2023-06-24T00:26:17;10.97;;;7.23;;
21507;SDS011;10915;54.352;9.074;2023-06-24T00:28:42;10.23;;;7.27;;
21507;SDS011;10915;54.352;9.074;2023-06-24T00:31:08;10.57;;;7.30;;
21507;SDS011;10915;54.352;9.074;2023-06-24T00:33:36;10.97;;;8.00;;
21507;SDS011;10915;54.352;9.074;2023-06-24T00:36:02;10.40;;;7.00;;
21507;SDS011;10915;54.352;9.074;2023-06-24T00:38:28;9.83;;;7.93;;
21507;SDS011;10915;54.352;9.074;2023-06-24T00:40:57;8.80;;;7.17;;
21507;SDS011;10915;54.352;9.074;2023-06-24T00:43:23;8.43;;;7.30;;
21507;SDS011;10915;54.352;9.074;2023-06-24T00:45:49;9.03;;;7.50;;
21507;SDS011;10915;54.352;9.074;2023-06-24T00:48:16;10.57;;;7.37;;
21507;SDS011;10915;54.352;9.074;2023-06-24T00:50:41;10.30;;;7.73;;
21507;SDS011;10915;54.352;9.074;2023-06-24T00:53:10;9.70;;;7.80;;
21507;SDS011;10915;54.352;9.074;2023-06-24T00:55:37;8.47;;;6.67;;
21507;SDS011;10915;54.352;9.074;2023-06-24T00:58:03;8.63;;;5.70;;
21507;SDS011;10915;54.352;9.074;2023-06-24T01:00:29;12.60;;;7.27;;
21507;SDS011;10915;54.352;9.074;2023-06-24T01:02:57;9.33;;;7.40;;
21507;SDS011;10915;54.352;9.074;2023-06-24T01:05:24;7.90;;;6.40;;
21507;SDS011;10915;54.352;9.074;2023-06-24T01:07:51;9.40;;;6.80;;
21507;SDS011;10915;54.352;9.074;2023-06-24T01:10:20;9.27;;;6.43;;
21507;SDS011;10915;54.352;9.074;2023-06-24T01:12:47;9.03;;;6.87;;
21507;SDS011;10915;54.352;9.074;2023-06-24T01:15:13;8.23;;;6.20;;
21507;SDS011;10915;54.352;9.074;2023-06-24T01:20:15;8.60;;;6.10;;
21507;SDS011;10915;54.352;9.074;2023-06-24T01:25:38;8.63;;;6.50;;
21507;SDS011;10915;54.352;9.074;2023-06-24T01:34:40;8.73;;;6.40;;
21507;SDS011;10915;54.352;9.074;2023-06-24T01:37:25;10.57;;;6.53;;
21507;SDS011;10915;54.352;9.074;2023-06-24T01:40:06;9.60;;;6.37;;
21507;SDS011;10915;54.352;9.074;2023-06-24T01:42:44;10.30;;;7.83;;
21507;SDS011;10915;54.352;9.074;2023-06-24T01:45:16;11.17;;;7.37;;
21507;SDS011;10915;54.352;9.074;2023-06-24T01:47:45;9.97;;;6.97;;
21507;SDS011;10915;54.352;9.074;2023-06-24T01:50:14;7.87;;;6.03;;
21507;SDS011;10915;54.352;9.074;2023-06-24T01:52:42;7.13;;;6.43;;
21507;SDS011;10915;54.352;9.074;2023-06-24T01:55:11;9.97;;;6.97;;
21507;SDS011;10915;54.352;9.074;2023-06-24T01:57:40;7.97;;;6.33;;
21507;SDS011;10915;54.352;9.074;2023-06-24T02:00:07;7.13;;;5.73;;
21507;SDS011;10915;54.352;9.074;2023-06-24T02:02:35;7.70;;;6.63;;
21507;SDS011;10915;54.352;9.074;2023-06-24T02:05:02;7.07;;;5.57;;
21507;SDS011;10915;54.352;9.074;2023-06-24T02:07:30;8.67;;;6.10;;
21507;SDS011;10915;54.352;9.074;2023-06-24T02:09:57;9.77;;;6.30;;
21507;SDS011;10915;54.352;9.074;2023-06-24T02:12:25;7.70;;;6.00;;
21507;SDS011;10915;54.352;9.074;2023-06-24T02:14:54;8.03;;;6.50;;
21507;SDS011;10915;54.352;9.074;2023-06-24T02:17:21;9.07;;;6.70;;
21507;SDS011;10915;54.352;9.074;2023-06-24T02:19:51;9.40;;;6.97;;
21507;SDS011;10915;54.352;9.074;2023-06-24T02:22:18;7.90;;;6.27;;
21507;SDS011;10915;54.352;9.074;2023-06-24T02:24:45;7.57;;;6.30;;
21507;SDS011;10915;54.352;9.074;2023-06-24T02:27:12;8.47;;;6.20;;
21507;SDS011;10915;54.352;9.074;2023-06-24T02:29:38;8.23;;;6.43;;
21507;SDS011;10915;54.352;9.074;2023-06-24T02:32:05;7.43;;;5.97;;
21507;SDS011;10915;54.352;9.074;2023-06-24T02:34:31;7.83;;;6.13;;
21507;SDS011;10915;54.352;9.074;2023-06-24T02:36:57;10.23;;;6.07;;
21507;SDS011;10915;54.352;9.074;2023-06-24T02:39:23;8.47;;;6.50;;
21507;SDS011;10915;54.352;9.074;2023-06-24T02:41:48;5.73;;;5.17;;
21507;SDS011;10915;54.352;9.074;2023-06-24T02:44:14;6.20;;;5.40;;
21507;SDS011;10915;54.352;9.074;2023-06-24T02:46:41;7.20;;;5.43;;
21507;SDS011;10915;54.352;9.074;2023-06-24T02:49:09;7.00;;;5.23;;
21507;SDS011;10915;54.352;9.074;2023-06-24T02:51:38;6.10;;;4.73;;
21507;SDS011;10915;54.352;9.074;2023-06-24T02:54:04;6.13;;;4.90;;
21507;SDS011;10915;54.352;9.074;2023-06-24T02:56:30;7.17;;;5.03;;
21507;SDS011;10915;54.352;9.074;2023-06-24T02:58:57;6.93;;;5.17;;
21507;SDS011;10915;54.352;9.074;2023-06-24T03:01:22;7.43;;;5.53;;
21507;SDS011;10915;54.352;9.074;2023-06-24T03:03:55;6.73;;;5.47;;
21507;SDS011;10915;54.352;9.074;2023-06-24T03:06:22;8.17;;;5.90;;
21507;SDS011;10915;54.352;9.074;2023-06-24T03:08:48;6.40;;;5.10;;
21507;SDS011;10915;54.352;9.074;2023-06-24T03:11:15;6.23;;;4.93;;
21507;SDS011;10915;54.352;9.074;2023-06-24T03:13:41;4.80;;;4.30;;
21507;SDS011;10915;54.352;9.074;2023-06-24T03:16:08;6.07;;;4.60;;
21507;SDS011;10915;54.352;9.074;2023-06-24T03:18:37;5.63;;;4.47;;
21507;SDS011;10915;54.352;9.074;2023-06-24T03:21:07;6.20;;;4.10;;
21507;SDS011;10915;54.352;9.074;2023-06-24T03:23:36;5.13;;;4.27;;
21507;SDS011;10915;54.352;9.074;2023-06-24T03:26:02;5.43;;;4.57;;
21507;SDS011;10915;54.352;9.074;2023-06-24T03:28:32;6.43;;;5.10;;
21507;SDS011;10915;54.352;9.074;2023-06-24T03:30:58;8.20;;;6.27;;
21507;SDS011;10915;54.352;9.074;2023-06-24T03:33:24;8.03;;;5.37;;
21507;SDS011;10915;54.352;9.074;2023-06-24T03:35:51;7.20;;;5.53;;
21507;SDS011;10915;54.352;9.074;2023-06-24T03:38:17;8.80;;;6.10;;
21507;SDS011;10915;54.352;9.074;2023-06-24T03:40:43;6.03;;;4.93;;
21507;SDS011;10915;54.352;9.074;2023-06-24T03:43:09;7.73;;;5.60;;
21507;SDS011;10915;54.352;9.074;2023-06-24T03:45:35;6.40;;;5.10;;
21507;SDS011;10915;54.352;9.074;2023-06-24T03:48:01;7.23;;;5.33;;
21507;SDS011;10915;54.352;9.074;2023-06-24T03:50:26;7.70;;;5.60;;
21507;SDS011;10915;54.352;9.074;2023-06-24T03:52:52;7.17;;;5.47;;
21507;SDS011;10915;54.352;9.074;2023-06-24T03:55:17;6.53;;;4.87;;
21507;SDS011;10915;54.352;9.074;2023-06-24T03:57:43;6.83;;;4.60;;
21507;SDS011;10915;54.352;9.074;2023-06-24T04:00:09;7.47;;;5.50;;
21507;SDS011;10915;54.352;9.074;2023-06-24T04:02:41;7.30;;;5.50;;
21507;SDS011;10915;54.352;9.074;2023-06-24T04:05:07;7.47;;;5.70;;
21507;SDS011;10915;54.352;9.074;2023-06-24T04:07:33;7.43;;;5.60;;
21507;SDS011;10915;54.352;9.074;2023-06-24T04:10:01;8.23;;;5.37;;
21507;SDS011;10915;54.352;9.074;2023-06-24T04:12:28;6.53;;;5.30;;
21507;SDS011;10915;54.352;9.074;2023-06-24T04:14:54;7.30;;;5.87;;
21507;SDS011;10915;54.352;9.074;2023-06-24T04:17:20;5.80;;;5.17;;
21507;SDS011;10915;54.352;9.074;2023-06-24T04:19:46;6.33;;;5.17;;
21507;SDS011;10915;54.352;9.074;2023-06-24T04:22:11;8.07;;;5.77;;
21507;SDS011;10915;54.352;9.074;2023-06-24T04:24:37;6.63;;;5.23;;
21507;SDS011;10915;54.352;9.074;2023-06-24T04:27:03;6.20;;;5.20;;
21507;SDS011;10915;54.352;9.074;2023-06-24T04:29:29;6.23;;;4.70;;
21507;SDS011;10915;54.352;9.074;2023-06-24T04:31:54;7.23;;;4.87;;
21507;SDS011;10915;54.352;9.074;2023-06-24T04:34:20;6.60;;;5.20;;
21507;SDS011;10915;54.352;9.074;2023-06-24T04:36:45;7.77;;;5.53;;
21507;SDS011;10915;54.352;9.074;2023-06-24T04:39:11;7.30;;;5.37;;
21507;SDS011;10915;54.352;9.074;2023-06-24T04:41:36;8.50;;;5.97;;
21507;SDS011;10915;54.352;9.074;2023-06-24T04:44:02;8.90;;;5.37;;
21507;SDS011;10915;54.352;9.074;2023-06-24T04:46:28;9.17;;;4.77;;
21507;SDS011;10915;54.352;9.074;2023-06-24T04:48:54;5.97;;;5.07;;
21507;SDS011;10915;54.352;9.074;2023-06-24T04:51:20;7.80;;;5.47;;
21507;SDS011;10915;54.352;9.074;2023-06-24T04:53:45;8.03;;;5.37;;
21507;SDS011;10915;54.352;9.074;2023-06-24T04:56:11;9.40;;;6.27;;
21507;SDS011;10915;54.352;9.074;2023-06-24T04:58:36;7.03;;;5.13;;
21507;SDS011;10915;54.352;9.074;2023-06-24T05:01:02;6.53;;;5.03;;
21507;SDS011;10915;54.352;9.074;2023-06-24T05:03:28;7.90;;;5.00;;
21507;SDS011;10915;54.352;9.074;2023-06-24T05:05:53;6.00;;;5.03;;
21507;SDS011;10915;54.352;9.074;2023-06-24T05:08:19;8.23;;;5.00;;
21507;SDS011;10915;54.352;9.074;2023-06-24T05:10:45;8.47;;;4.93;;
21507;SDS011;10915;54.352;9.074;2023-06-24T05:13:11;7.97;;;5.27;;
21507;SDS011;10915;54.352;9.074;2023-06-24T05:15:36;7.50;;;4.93;;
21507;SDS011;10915;54.352;9.074;2023-06-24T05:18:02;6.60;;;4.60;;
21507;SDS011;10915;54.352;9.074;2023-06-24T05:20:28;5.40;;;4.40;;
21507;SDS011;10915;54.352;9.074;2023-06-24T05:22:53;6.77;;;5.00;;
21507;SDS011;10915;54.352;9.074;2023-06-24T05:25:19;8.77;;;5.87;;
21507;SDS011;10915;54.352;9.074;2023-06-24T05:27:45;8.23;;;4.90;;
21507;SDS011;10915;54.352;9.074;2023-06-24T05:30:10;6.40;;;4.60;;
21507;SDS011;10915;54.352;9.074;2023-06-24T05:32:37;8.23;;;4.37;;
21507;SDS011;10915;54.352;9.074;2023-06-24T05:35:03;7.53;;;5.40;;
21507;SDS011;10915;54.352;9.074;2023-06-24T05:37:29;8.40;;;5.63;;
21507;SDS011;10915;54.352;9.074;2023-06-24T05:39:55;7.83;;;4.97;;
21507;SDS011;10915;54.352;9.074;2023-06-24T05:42:22;8.20;;;5.03;;
21507;SDS011;10915;54.352;9.074;2023-06-24T05:44:48;9.40;;;4.83;;
21507;SDS011;10915;54.352;9.074;2023-06-24T05:47:13;5.87;;;4.80;;
21507;SDS011;10915;54.352;9.074;2023-06-24T05:49:39;11.07;;;5.63;;
21507;SDS011;10915;54.352;9.074;2023-06-24T05:52:05;7.13;;;4.73;;
21507;SDS011;10915;54.352;9.074;2023-06-24T05:54:31;7.80;;;5.00;;
21507;SDS011;10915;54.352;9.074;2023-06-24T05:56:57;9.00;;;5.53;;
21507;SDS011;10915;54.352;9.074;2023-06-24T05:59:22;7.90;;;5.70;;
21507;SDS011;10915;54.352;9.074;2023-06-24T06:01:48;6.13;;;4.93;;
21507;SDS011;10915;54.352;9.074;2023-06-24T06:04:14;8.67;;;5.70;;
21507;SDS011;10915;54.352;9.074;2023-06-24T06:06:39;8.67;;;5.47;;
21507;SDS011;10915;54.352;9.074;2023-06-24T06:09:06;7.37;;;5.33;;
21507;SDS011;10915;54.352;9.074;2023-06-24T06:11:32;7.60;;;4.60;;
21507;SDS011;10915;54.352;9.074;2023-06-24T06:13:58;7.67;;;4.83;;
21507;SDS011;10915;54.352;9.074;2023-06-24T06:16:23;7.23;;;4.80;;
21507;SDS011;10915;54.352;9.074;2023-06-24T06:18:50;5.70;;;4.50;;
21507;SDS011;10915;54.352;9.074;2023-06-24T06:21:16;7.13;;;4.23;;
21507;SDS011;10915;54.352;9.074;2023-06-24T06:23:41;5.37;;;3.93;;
21507;SDS011;10915;54.352;9.074;2023-06-24T06:26:07;6.00;;;3.40;;
21507;SDS011;10915;54.352;9.074;2023-06-24T06:28:33;7.23;;;4.27;;
21507;SDS011;10915;54.352;9.074;2023-06-24T06:30:58;5.03;;;3.87;;
21507;SDS011;10915;54.352;9.074;2023-06-24T06:33:24;5.20;;;3.80;;
21507;SDS011;10915;54.352;9.074;2023-06-24T06:35:49;6.13;;;3.97;;
21507;SDS011;10915;54.352;9.074;2023-06-24T06:38:15;4.07;;;3.50;;
21507;SDS011;10915;54.352;9.074;2023-06-24T06:40:40;4.30;;;3.37;;
21507;SDS011;10915;54.352;9.074;2023-06-24T06:43:06;5.67;;;3.67;;
21507;SDS011;10915;54.352;9.074;2023-06-24T06:45:32;5.93;;;3.07;;
21507;SDS011;10915;54.352;9.074;2023-06-24T06:47:57;6.33;;;3.60;;
21507;SDS011;10915;54.352;9.074;2023-06-24T06:50:23;4.23;;;3.23;;
21507;SDS011;10915;54.352;9.074;2023-06-24T06:52:48;3.83;;;3.00;;
21507;SDS011;10915;54.352;9.074;2023-06-24T06:55:14;4.17;;;3.17;;
21507;SDS011;10915;54.352;9.074;2023-06-24T06:57:40;4.20;;;2.60;;
21507;SDS011;10915;54.352;9.074;2023-06-24T07:00:05;5.27;;;2.93;;
21507;SDS011;10915;54.352;9.074;2023-06-24T07:02:31;3.77;;;2.53;;
21507;SDS011;10915;54.352;9.074;2023-06-24T07:04:57;5.33;;;3.40;;
21507;SDS011;10915;54.352;9.074;2023-06-24T07:07:24;5.33;;;2.70;;
21507;SDS011;10915;54.352;9.074;2023-06-24T07:09:49;2.70;;;2.40;;
21507;SDS011;10915;54.352;9.074;2023-06-24T07:12:15;3.27;;;2.43;;
21507;SDS011;10915;54.352;9.074;2023-06-24T07:14:41;3.93;;;2.50;;
21507;SDS011;10915;54.352;9.074;2023-06-24T07:17:07;3.43;;;2.37;;
21507;SDS011;10915;54.352;9.074;2023-06-24T07:19:32;5.43;;;3.00;;
21507;SDS011;10915;54.352;9.074;2023-06-24T07:21:58;4.03;;;2.30;;
21507;SDS011;10915;54.352;9.074;2023-06-24T07:24:23;3.80;;;2.27;;
21507;SDS011;10915;54.352;9.074;2023-06-24T07:26:49;5.20;;;2.90;;
21507;SDS011;10915;54.352;9.074;2023-06-24T07:29:15;5.50;;;3.03;;
21507;SDS011;10915;54.352;9.074;2023-06-24T07:31:40;4.57;;;2.83;;
21507;SDS011;10915;54.352;9.074;2023-06-24T07:34:06;4.03;;;2.83;;
21507;SDS011;10915;54.352;9.074;2023-06-24T07:36:32;4.97;;;3.10;;
21507;SDS011;10915;54.352;9.074;2023-06-24T07:38:57;6.53;;;3.40;;
21507;SDS011;10915;54.352;9.074;2023-06-24T07:41:23;3.97;;;3.03;;
21507;SDS011;10915;54.352;9.074;2023-06-24T07:43:48;4.77;;;2.80;;
21507;SDS011;10915;54.352;9.074;2023-06-24T07:46:14;4.07;;;2.93;;
21507;SDS011;10915;54.352;9.074;2023-06-24T07:48:40;4.40;;;3.17;;
21507;SDS011;10915;54.352;9.074;2023-06-24T07:51:05;4.83;;;2.97;;
21507;SDS011;10915;54.352;9.074;2023-06-24T07:53:31;4.53;;;3.20;;
21507;SDS011;10915;54.352;9.074;2023-06-24T07:55:58;4.47;;;3.27;;
21507;SDS011;10915;54.352;9.074;2023-06-24T07:58:24;4.40;;;3.43;;
21507;SDS011;10915;54.352;9.074;2023-06-24T08:00:49;5.17;;;3.27;;
21507;SDS011;10915;54.352;9.074;2023-06-24T08:03:15;5.23;;;3.20;;
21507;SDS011;10915;54.352;9.074;2023-06-24T08:05:41;7.20;;;3.40;;
21507;SDS011;10915;54.352;9.074;2023-06-24T08:08:07;3.57;;;2.83;;
21507;SDS011;10915;54.352;9.074;2023-06-24T08:10:33;5.70;;;2.93;;
21507;SDS011;10915;54.352;9.074;2023-06-24T08:12:59;6.83;;;3.10;;
21507;SDS011;10915;54.352;9.074;2023-06-24T08:15:24;4.22;;;3.20;;
21507;SDS011;10915;54.352;9.074;2023-06-24T08:17:51;4.23;;;3.00;;
21507;SDS011;10915;54.352;9.074;2023-06-24T08:20:17;4.83;;;2.83;;
21507;SDS011;10915;54.352;9.074;2023-06-24T08:22:43;5.20;;;3.30;;
21507;SDS011;10915;54.352;9.074;2023-06-24T08:25:08;3.83;;;3.07;;
21507;SDS011;10915;54.352;9.074;2023-06-24T08:27:34;4.10;;;3.20;;
21507;SDS011;10915;54.352;9.074;2023-06-24T08:30:00;5.63;;;2.80;;
21507;SDS011;10915;54.352;9.074;2023-06-24T08:32:25;4.35;;;3.28;;
21507;SDS011;10915;54.352;9.074;2023-06-24T08:34:51;4.90;;;3.23;;
21507;SDS011;10915;54.352;9.074;2023-06-24T08:37:16;6.20;;;3.00;;
21507;SDS011;10915;54.352;9.074;2023-06-24T08:39:42;5.37;;;3.20;;
21507;SDS011;10915;54.352;9.074;2023-06-24T08:42:07;5.33;;;3.20;;
21507;SDS011;10915;54.352;9.074;2023-06-24T08:44:33;9.73;;;4.37;;
21507;SDS011;10915;54.352;9.074;2023-06-24T08:46:59;4.97;;;3.40;;
21507;SDS011;10915;54.352;9.074;2023-06-24T08:49:26;5.82;;;3.92;;
21507;SDS011;10915;54.352;9.074;2023-06-24T08:52:00;5.07;;;3.10;;
21507;SDS011;10915;54.352;9.074;2023-06-24T08:54:28;4.80;;;3.50;;
21507;SDS011;10915;54.352;9.074;2023-06-24T08:56:58;5.17;;;3.70;;
21507;SDS011;10915;54.352;9.074;2023-06-24T08:59:26;5.63;;;3.70;;
21507;SDS011;10915;54.352;9.074;2023-06-24T09:01:52;6.47;;;3.87;;
21507;SDS011;10915;54.352;9.074;2023-06-24T09:04:18;5.73;;;3.90;;
21507;SDS011;10915;54.352;9.074;2023-06-24T09:06:43;4.57;;;3.40;;
21507;SDS011;10915;54.352;9.074;2023-06-24T09:09:19;4.40;;;2.90;;
21507;SDS011;10915;54.352;9.074;2023-06-24T09:11:52;6.47;;;3.30;;
21507;SDS011;10915;54.352;9.074;2023-06-24T09:14:21;5.23;;;3.50;;
21507;SDS011;10915;54.352;9.074;2023-06-24T09:17:00;7.43;;;3.70;;
21507;SDS011;10915;54.352;9.074;2023-06-24T09:19:28;5.57;;;3.17;;
21507;SDS011;10915;54.352;9.074;2023-06-24T09:22:01;4.40;;;3.10;;
21507;SDS011;10915;54.352;9.074;2023-06-24T09:24:29;4.37;;;3.10;;
21507;SDS011;10915;54.352;9.074;2023-06-24T09:26:56;5.30;;;3.00;;
21507;SDS011;10915;54.352;9.074;2023-06-24T09:29:28;4.40;;;3.10;;
21507;SDS011;10915;54.352;9.074;2023-06-24T09:32:10;4.50;;;3.50;;
21507;SDS011;10915;54.352;9.074;2023-06-24T09:34:38;4.80;;;3.00;;
21507;SDS011;10915;54.352;9.074;2023-06-24T09:37:07;5.70;;;3.13;;
21507;SDS011;10915;54.352;9.074;2023-06-24T09:39:37;5.03;;;3.40;;
21507;SDS011;10915;54.352;9.074;2023-06-24T09:42:05;7.80;;;3.53;;
21507;SDS011;10915;54.352;9.074;2023-06-24T09:44:35;5.63;;;3.00;;
21507;SDS011;10915;54.352;9.074;2023-06-24T09:47:17;6.67;;;3.00;;
21507;SDS011;10915;54.352;9.074;2023-06-24T09:49:42;6.97;;;3.50;;
21507;SDS011;10915;54.352;9.074;2023-06-24T09:52:08;6.27;;;3.33;;
21507;SDS011;10915;54.352;9.074;2023-06-24T09:57:36;3.43;;;2.90;;
21507;SDS011;10915;54.352;9.074;2023-06-24T10:04:03;3.67;;;2.70;;
21507;SDS011;10915;54.352;9.074;2023-06-24T10:12:59;6.33;;;3.40;;
21507;SDS011;10915;54.352;9.074;2023-06-24T10:15:34;5.50;;;3.60;;
21507;SDS011;10915;54.352;9.074;2023-06-24T10:21:15;7.03;;;3.63;;
21507;SDS011;10915;54.352;9.074;2023-06-24T10:32:41;4.03;;;2.80;;
21507;SDS011;10915;54.352;9.074;2023-06-24T10:35:20;4.77;;;3.20;;
21507;SDS011;10915;54.352;9.074;2023-06-24T10:38:16;5.18;;;3.00;;
21507;SDS011;10915;54.352;9.074;2023-06-24T10:40:45;5.43;;;3.05;;
21507;SDS011;10915;54.352;9.074;2023-06-24T10:46:14;4.88;;;2.72;;
21507;SDS011;10915;54.352;9.074;2023-06-24T10:48:48;5.38;;;2.90;;
21507;SDS011;10915;54.352;9.074;2023-06-24T10:51:13;4.45;;;2.42;;
21507;SDS011;10915;54.352;9.074;2023-06-24T10:53:42;3.42;;;2.20;;
21507;SDS011;10915;54.352;9.074;2023-06-24T10:56:11;3.33;;;2.42;;
21507;SDS011;10915;54.352;9.074;2023-06-24T10:58:57;3.03;;;2.65;;
21507;SDS011;10915;54.352;9.074;2023-06-24T11:01:23;5.43;;;2.90;;
21507;SDS011;10915;54.352;9.074;2023-06-24T11:03:54;5.97;;;2.60;;
21507;SDS011;10915;54.352;9.074;2023-06-24T11:06:34;3.33;;;2.42;;
21507;SDS011;10915;54.352;9.074;2023-06-24T11:09:03;5.25;;;3.00;;
21507;SDS011;10915;54.352;9.074;2023-06-24T11:11:32;4.05;;;2.72;;
21507;SDS011;10915;54.352;9.074;2023-06-24T11:14:16;3.87;;;2.60;;
21507;SDS011;10915;54.352;9.074;2023-06-24T11:16:45;3.97;;;2.60;;
21507;SDS011;10915;54.352;9.074;2023-06-24T11:19:11;2.97;;;2.42;;
21507;SDS011;10915;54.352;9.074;2023-06-24T11:21:40;3.35;;;2.50;;
21507;SDS011;10915;54.352;9.074;2023-06-24T11:24:06;4.30;;;2.83;;
21507;SDS011;10915;54.352;9.074;2023-06-24T11:29:24;3.03;;;2.50;;
21507;SDS011;10915;54.352;9.074;2023-06-24T11:31:53;3.65;;;2.30;;
21507;SDS011;10915;54.352;9.074;2023-06-24T11:34:19;2.92;;;2.40;;
21507;SDS011;10915;54.352;9.074;2023-06-24T11:36:44;7.07;;;3.03;;
21507;SDS011;10915;54.352;9.074;2023-06-24T11:39:20;3.15;;;2.30;;
21507;SDS011;10915;54.352;9.074;2023-06-24T11:41:57;3.50;;;2.28;;
21507;SDS011;10915;54.352;9.074;2023-06-24T11:44:23;3.38;;;2.50;;
21507;SDS011;10915;54.352;9.074;2023-06-24T11:46:49;3.38;;;2.38;;
21507;SDS011;10915;54.352;9.074;2023-06-24T11:49:15;3.97;;;2.65;;
21507;SDS011;10915;54.352;9.074;2023-06-24T11:51:49;3.42;;;2.67;;
21507;SDS011;10915;54.352;9.074;2023-06-24T11:54:18;4.80;;;2.55;;
21507;SDS011;10915;54.352;9.074;2023-06-24T11:56:49;4.55;;;2.78;;
21507;SDS011;10915;54.352;9.074;2023-06-24T11:59:22;4.10;;;2.53;;
21507;SDS011;10915;54.352;9.074;2023-06-24T12:01:55;3.35;;;2.17;;
21507;SDS011;10915;54.352;9.074;2023-06-24T12:04:28;4.97;;;2.60;;
21507;SDS011;10915;54.352;9.074;2023-06-24T12:06:58;3.53;;;2.38;;
21507;SDS011;10915;54.352;9.074;2023-06-24T12:09:24;5.43;;;3.13;;
21507;SDS011;10915;54.352;9.074;2023-06-24T12:11:51;5.85;;;3.30;;
21507;SDS011;10915;54.352;9.074;2023-06-24T12:14:17;4.10;;;2.50;;
21507;SDS011;10915;54.352;9.074;2023-06-24T12:16:43;5.45;;;3.25;;
21507;SDS011;10915;54.352;9.074;2023-06-24T12:19:12;8.10;;;3.45;;
21507;SDS011;10915;54.352;9.074;2023-06-24T12:21:38;7.50;;;3.58;;
21507;SDS011;10915;54.352;9.074;2023-06-24T12:24:07;5.05;;;2.92;;
21507;SDS011;10915;54.352;9.074;2023-06-24T12:26:33;4.95;;;2.90;;
21507;SDS011;10915;54.352;9.074;2023-06-24T12:28:59;4.22;;;3.08;;
21507;SDS011;10915;54.352;9.074;2023-06-24T12:31:25;4.60;;;3.17;;
21507;SDS011;10915;54.352;9.074;2023-06-24T12:33:51;4.93;;;3.08;;
21507;SDS011;10915;54.352;9.074;2023-06-24T12:36:21;4.60;;;3.03;;
21507;SDS011;10915;54.352;9.074;2023-06-24T12:38:47;6.03;;;3.90;;
21507;SDS011;10915;54.352;9.074;2023-06-24T12:41:20;5.65;;;3.65;;
21507;SDS011;10915;54.352;9.074;2023-06-24T12:43:49;5.40;;;3.30;;
21507;SDS011;10915;54.352;9.074;2023-06-24T12:46:15;5.70;;;3.53;;
21507;SDS011;10915;54.352;9.074;2023-06-24T12:48:41;5.40;;;3.40;;
21507;SDS011;10915;54.352;9.074;2023-06-24T12:51:08;5.65;;;3.20;;
21507;SDS011;10915;54.352;9.074;2023-06-24T12:53:34;8.10;;;3.95;;
21507;SDS011;10915;54.352;9.074;2023-06-24T12:56:00;5.95;;;4.20;;
21507;SDS011;10915;54.352;9.074;2023-06-24T12:58:26;6.82;;;3.90;;
21507;SDS011;10915;54.352;9.074;2023-06-24T13:00:55;7.00;;;3.35;;
21507;SDS011;10915;54.352;9.074;2023-06-24T13:03:22;4.95;;;4.00;;
21507;SDS011;10915;54.352;9.074;2023-06-24T13:05:50;4.85;;;3.58;;
21507;SDS011;10915;54.352;9.074;2023-06-24T13:11:09;5.22;;;3.70;;
21507;SDS011;10915;54.352;9.074;2023-06-24T13:13:36;5.70;;;3.47;;
21507;SDS011;10915;54.352;9.074;2023-06-24T13:16:04;5.15;;;3.40;;
21507;SDS011;10915;54.352;9.074;2023-06-24T13:18:30;7.00;;;4.22;;
21507;SDS011;10915;54.352;9.074;2023-06-24T13:20:59;4.55;;;3.70;;
21507;SDS011;10915;54.352;9.074;2023-06-24T13:23:27;6.15;;;3.75;;
21507;SDS011;10915;54.352;9.074;2023-06-24T13:25:53;8.27;;;3.75;;
21507;SDS011;10915;54.352;9.074;2023-06-24T13:28:18;6.57;;;3.58;;
21507;SDS011;10915;54.352;9.074;2023-06-24T13:30:44;4.68;;;3.75;;
21507;SDS011;10915;54.352;9.074;2023-06-24T13:33:13;5.50;;;3.50;;
21507;SDS011;10915;54.352;9.074;2023-06-24T13:35:40;6.70;;;4.07;;
21507;SDS011;10915;54.352;9.074;2023-06-24T13:38:06;6.47;;;3.97;;
21507;SDS011;10915;54.352;9.074;2023-06-24T13:40:36;7.25;;;3.60;;
21507;SDS011;10915;54.352;9.074;2023-06-24T13:43:02;5.35;;;3.33;;
21507;SDS011;10915;54.352;9.074;2023-06-24T13:45:28;7.00;;;4.13;;
21507;SDS011;10915;54.352;9.074;2023-06-24T13:47:54;6.78;;;4.22;;
21507;SDS011;10915;54.352;9.074;2023-06-24T13:50:20;5.00;;;3.50;;
21507;SDS011;10915;54.352;9.074;2023-06-24T13:52:46;5.95;;;4.00;;
21507;SDS011;10915;54.352;9.074;2023-06-24T13:55:12;6.10;;;3.40;;
21507;SDS011;10915;54.352;9.074;2023-06-24T13:57:38;5.65;;;3.97;;
21507;SDS011;10915;54.352;9.074;2023-06-24T14:00:04;5.97;;;3.70;;
21507;SDS011;10915;54.352;9.074;2023-06-24T14:02:30;10.00;;;4.35;;
21507;SDS011;10915;54.352;9.074;2023-06-24T14:04:56;9.73;;;3.47;;
21507;SDS011;10915;54.352;9.074;2023-06-24T14:07:24;5.43;;;3.92;;
21507;SDS011;10915;54.352;9.074;2023-06-24T14:09:53;5.55;;;3.78;;
21507;SDS011;10915;54.352;9.074;2023-06-24T14:12:19;4.75;;;3.30;;
21507;SDS011;10915;54.352;9.074;2023-06-24T14:14:44;5.03;;;3.50;;
21507;SDS011;10915;54.352;9.074;2023-06-24T14:17:10;6.30;;;4.10;;
21507;SDS011;10915;54.352;9.074;2023-06-24T14:19:38;6.05;;;3.90;;
21507;SDS011;10915;54.352;9.074;2023-06-24T14:22:09;5.10;;;3.63;;
21507;SDS011;10915;54.352;9.074;2023-06-24T14:24:35;6.25;;;3.50;;
21507;SDS011;10915;54.352;9.074;2023-06-24T14:27:04;4.78;;;3.60;;
21507;SDS011;10915;54.352;9.074;2023-06-24T14:29:34;5.50;;;3.38;;
21507;SDS011;10915;54.352;9.074;2023-06-24T14:32:00;6.45;;;3.55;;
21507;SDS011;10915;54.352;9.074;2023-06-24T14:34:26;5.03;;;3.40;;
21507;SDS011;10915;54.352;9.074;2023-06-24T14:36:54;6.03;;;4.03;;
21507;SDS011;10915;54.352;9.074;2023-06-24T14:39:20;5.05;;;3.35;;
21507;SDS011;10915;54.352;9.074;2023-06-24T14:41:46;5.00;;;3.75;;
21507;SDS011;10915;54.352;9.074;2023-06-24T14:44:12;5.80;;;3.90;;
21507;SDS011;10915;54.352;9.074;2023-06-24T14:46:37;3.80;;;3.33;;
21507;SDS011;10915;54.352;9.074;2023-06-24T14:49:03;6.35;;;3.90;;
21507;SDS011;10915;54.352;9.074;2023-06-24T14:51:28;7.63;;;3.67;;
21507;SDS011;10915;54.352;9.074;2023-06-24T14:53:54;7.65;;;3.97;;
21507;SDS011;10915;54.352;9.074;2023-06-24T14:56:20;4.70;;;3.20;;
21507;SDS011;10915;54.352;9.074;2023-06-24T14:58:45;8.48;;;3.97;;
21507;SDS011;10915;54.352;9.074;2023-06-24T15:01:11;8.10;;;3.90;;
21507;SDS011;10915;54.352;9.074;2023-06-24T15:03:36;4.32;;;3.17;;
21507;SDS011;10915;54.352;9.074;2023-06-24T15:06:02;5.88;;;3.60;;
21507;SDS011;10915;54.352;9.074;2023-06-24T15:08:28;4.90;;;3.30;;
21507;SDS011;10915;54.352;9.074;2023-06-24T15:10:54;6.97;;;4.60;;
21507;SDS011;10915;54.352;9.074;2023-06-24T15:13:19;7.40;;;3.97;;
21507;SDS011;10915;54.352;9.074;2023-06-24T15:15:45;6.05;;;3.58;;
21507;SDS011;10915;54.352;9.074;2023-06-24T15:18:11;5.60;;;3.75;;
21507;SDS011;10915;54.352;9.074;2023-06-24T15:20:36;9.23;;;4.25;;
21507;SDS011;10915;54.352;9.074;2023-06-24T15:23:02;4.50;;;3.27;;
21507;SDS011;10915;54.352;9.074;2023-06-24T15:25:28;5.80;;;3.80;;
21507;SDS011;10915;54.352;9.074;2023-06-24T15:27:54;5.78;;;3.58;;
21507;SDS011;10915;54.352;9.074;2023-06-24T15:30:20;4.60;;;3.17;;
21507;SDS011;10915;54.352;9.074;2023-06-24T15:32:45;4.38;;;3.08;;
21507;SDS011;10915;54.352;9.074;2023-06-24T15:35:11;5.83;;;3.73;;
21507;SDS011;10915;54.352;9.074;2023-06-24T15:37:37;4.03;;;3.07;;
21507;SDS011;10915;54.352;9.074;2023-06-24T15:40:03;4.95;;;3.10;;
21507;SDS011;10915;54.352;9.074;2023-06-24T15:42:29;5.85;;;3.25;;
21507;SDS011;10915;54.352;9.074;2023-06-24T15:44:55;4.93;;;3.08;;
21507;SDS011;10915;54.352;9.074;2023-06-24T15:47:21;6.03;;;4.30;;
21507;SDS011;10915;54.352;9.074;2023-06-24T15:49:46;6.23;;;3.40;;
21507;SDS011;10915;54.352;9.074;2023-06-24T15:52:12;5.63;;;3.50;;
21507;SDS011;10915;54.352;9.074;2023-06-24T15:54:38;5.03;;;3.47;;
21507;SDS011;10915;54.352;9.074;2023-06-24T15:57:03;6.38;;;3.90;;